Time;durP1;ratioP1;P1;durP2;ratioP2;P2;SDS_P1;SDS_P2;PMS_P1;PMS_P2;Temp;Humidity;BMP_temperature;BMP_pressure;BME280_temperature;BME280_humidity;BME280_pressure;Samples;Min_cycle;Max_cycle;Signal;HPM_P1;HPM_P2
2022/04/26 03:37:05;;;;;;;2.10;1.90;;;;;;;15.85;50.83;94218.78;5084115;28;20439;-76
2022/04/26 03:39:34;;;;;;;3.77;2.50;;;;;;;15.88;50.61;94228.84;5065807;28;20405;-75
2022/04/26 03:42:00;;;;;;;4.60;2.60;;;;;;;15.89;50.48;94225.97;5077974;28;20439;-75
2022/04/26 03:44:26;;;;;;;4.37;2.53;;;;;;;15.91;50.60;94225.75;5071537;28;20444;-75
2022/04/26 03:46:52;;;;;;;11.23;3.80;;;;;;;15.96;50.46;94231.13;5072619;28;20507;-76
2022/04/26 03:49:19;;;;;;;6.60;3.40;;;;;;;16.15;50.31;94234.34;5064389;28;20170;-76
2022/04/26 03:51:45;;;;;;;11.63;3.10;;;;;;;16.18;50.46;94233.84;5076057;28;20428;-77
2022/04/26 03:54:10;;;;;;;7.70;4.20;;;;;;;16.22;50.54;94228.88;5080368;28;20484;-76
2022/04/26 03:56:36;;;;;;;5.70;3.90;;;;;;;16.17;50.72;94234.91;5071454;28;20201;-76
2022/04/26 03:59:01;;;;;;;5.97;3.20;;;;;;;16.22;50.94;94236.81;5064052;28;20231;-76
2022/04/26 04:01:27;;;;;;;4.93;3.27;;;;;;;16.36;50.50;94240.75;5082840;28;20192;-76
2022/04/26 04:03:52;;;;;;;4.70;3.30;;;;;;;16.48;50.09;94241.44;5084028;28;20173;-76
2022/04/26 04:06:18;;;;;;;5.40;3.53;;;;;;;16.56;50.30;94243.69;5078727;28;20684;-76
2022/04/26 04:08:43;;;;;;;4.50;2.73;;;;;;;16.20;50.90;94243.13;5070461;28;20205;-76
2022/04/26 04:11:09;;;;;;;6.50;2.70;;;;;;;16.47;50.47;94252.28;5075829;28;20210;-77
2022/04/26 04:13:34;;;;;;;12.33;3.83;;;;;;;16.30;51.19;94247.78;5046803;28;20175;-76
2022/04/26 04:16:00;;;;;;;4.07;3.40;;;;;;;16.30;50.83;94252.28;5075908;28;20178;-76
2022/04/26 04:21:09;;;;;;;7.63;3.90;;;;;;;16.80;49.98;94251.44;5071892;28;20201;-76
2022/04/26 04:23:36;;;;;;;5.07;2.93;;;;;;;16.91;49.81;94269.06;5064652;28;20416;-76
2022/04/26 04:26:02;;;;;;;6.10;3.50;;;;;;;17.06;49.20;94270.34;5064283;28;20233;-76
2022/04/26 04:28:28;;;;;;;9.13;3.87;;;;;;;17.09;49.64;94267.19;5069306;28;20412;-76
2022/04/26 04:30:53;;;;;;;5.67;3.97;;;;;;;17.14;49.30;94267.25;5066174;28;20195;-76
2022/04/26 04:33:19;;;;;;;9.10;4.00;;;;;;;17.21;48.64;94273.19;5071108;28;20228;-76
2022/04/26 04:35:44;;;;;;;8.73;4.40;;;;;;;17.22;49.14;94273.97;5078045;28;20185;-76
2022/04/26 04:38:09;;;;;;;7.03;4.67;;;;;;;17.26;49.18;94269.78;5065139;28;20178;-76
2022/04/26 04:40:35;;;;;;;6.10;3.97;;;;;;;17.30;48.33;94274.38;5082370;28;20174;-77
2022/04/26 04:43:00;;;;;;;14.13;4.33;;;;;;;17.42;48.35;94276.09;5063921;28;20204;-76
2022/04/26 04:45:26;;;;;;;7.57;4.80;;;;;;;17.50;47.95;94278.28;5077767;28;20170;-76
2022/04/26 04:47:51;;;;;;;6.80;3.83;;;;;;;17.61;47.08;94279.22;5063612;28;20182;-76
2022/04/26 04:50:17;;;;;;;2.97;2.73;;;;;;;17.68;46.97;94283.28;5063020;28;20190;-76
2022/04/26 04:52:42;;;;;;;3.63;3.33;;;;;;;17.61;47.01;94280.03;5068404;28;20186;-76
2022/04/26 04:55:08;;;;;;;5.60;2.90;;;;;;;17.81;46.45;94286.56;5063525;28;20222;-75
2022/04/26 04:57:33;;;;;;;7.90;3.00;;;;;;;17.52;46.49;94284.94;5075093;28;20181;-75
2022/04/26 05:00:00;;;;;;;6.93;3.13;;;;;;;17.70;45.64;94285.66;5065488;28;20170;-75
2022/04/26 05:02:26;;;;;;;6.07;2.37;;;;;;;17.75;44.65;94289.16;5064318;28;20181;-75
2022/04/26 05:04:51;;;;;;;3.40;2.10;;;;;;;18.04;44.61;94285.53;5066043;28;20483;-76
2022/04/26 05:07:17;;;;;;;4.00;2.70;;;;;;;18.36;43.46;94288.22;5052136;28;20245;-75
2022/04/26 05:09:43;;;;;;;2.90;1.93;;;;;;;18.14;43.86;94290.94;5076393;28;20182;-75
2022/04/26 05:12:10;;;;;;;4.50;2.03;;;;;;;18.06;43.53;94294.00;5063160;28;20194;-75
2022/04/26 05:14:35;;;;;;;5.37;2.00;;;;;;;18.21;43.85;94288.88;5070995;28;20201;-76
2022/04/26 05:17:00;;;;;;;5.50;2.40;;;;;;;18.10;43.80;94287.19;5044465;28;20808;-75
2022/04/26 05:19:26;;;;;;;6.30;2.50;;;;;;;18.37;43.26;94289.03;5062484;28;20177;-75
2022/04/26 05:21:51;;;;;;;9.53;2.40;;;;;;;18.49;42.68;94293.09;5062365;28;20190;-75
2022/04/26 05:27:01;;;;;;;6.27;2.30;;;;;;;18.71;42.94;94297.53;5078825;28;20248;-76
2022/04/26 05:29:26;;;;;;;8.30;2.97;;;;;;;19.16;41.99;94290.97;5077831;28;20417;-75
2022/04/26 05:31:52;;;;;;;3.97;2.67;;;;;;;19.53;41.35;94291.94;5063479;28;20222;-75
2022/04/26 05:34:17;;;;;;;2.80;2.60;;;;;;;19.81;40.66;94293.41;5066179;28;20171;-75
2022/04/26 05:36:43;;;;;;;4.93;2.10;;;;;;;19.46;41.08;94292.16;5070150;28;20185;-75
2022/04/26 05:39:08;;;;;;;5.20;2.97;;;;;;;19.78;40.36;94296.56;5065405;28;20170;-75
2022/04/26 05:41:33;;;;;;;10.10;2.23;;;;;;;20.01;39.99;94293.44;5055675;28;20182;-76
2022/04/26 05:43:59;;;;;;;13.40;2.10;;;;;;;20.04;39.83;94300.13;5092974;28;20201;-75
2022/04/26 05:46:24;;;;;;;3.80;1.80;;;;;;;20.27;38.80;94298.81;5086720;28;20226;-76
2022/04/26 05:48:50;;;;;;;6.63;1.47;;;;;;;20.44;38.63;94306.56;5085494;28;20177;-76
2022/04/26 05:51:15;;;;;;;6.03;2.40;;;;;;;19.79;39.54;94301.63;5061423;28;20189;-76
2022/04/26 05:53:41;;;;;;;3.53;1.70;;;;;;;19.58;40.20;94298.06;5078286;28;20203;-75
2022/04/26 05:56:08;;;;;;;3.90;1.67;;;;;;;19.83;39.67;94304.56;5087289;28;20617;-75
2022/04/26 05:58:34;;;;;;;3.20;1.90;;;;;;;20.02;39.32;94305.69;5055147;28;20245;-76
2022/04/26 06:00:59;;;;;;;3.63;1.60;;;;;;;20.67;38.05;94307.94;5052150;28;20861;-76
2022/04/26 06:03:25;;;;;;;1.63;1.53;;;;;;;20.18;38.39;94298.53;5079478;28;20181;-76
2022/04/26 06:05:52;;;;;;;5.70;1.93;;;;;;;20.39;38.23;94301.22;5068121;28;20576;-76
2022/04/26 06:08:17;;;;;;;5.97;2.83;;;;;;;20.16;38.60;94297.22;5078676;28;20193;-75
2022/04/26 06:10:43;;;;;;;4.90;1.87;;;;;;;20.69;37.82;94289.84;5082281;28;20413;-76
2022/04/26 06:13:09;;;;;;;3.00;1.70;;;;;;;20.96;37.45;94294.09;5067326;28;20179;-76
2022/04/26 06:15:35;;;;;;;3.40;2.33;;;;;;;20.61;37.95;94290.38;5066796;28;20405;-76
2022/04/26 06:18:00;;;;;;;1.60;1.50;;;;;;;19.86;39.16;94288.91;5049711;28;20185;-76
2022/04/26 06:20:26;;;;;;;2.57;1.50;;;;;;;20.66;37.65;94293.06;5052628;28;20439;-76
2022/04/26 06:22:52;;;;;;;2.53;1.30;;;;;;;20.57;37.89;94287.44;5067947;28;20181;-76
2022/04/26 06:25:17;;;;;;;7.00;1.60;;;;;;;20.07;38.49;94287.09;5068980;28;20185;-75
2022/04/26 06:27:43;;;;;;;5.07;2.57;;;;;;;20.58;38.00;94280.25;5079743;28;20405;-76
2022/04/26 06:30:09;;;;;;;3.57;1.60;;;;;;;20.43;37.79;94287.16;5070111;28;20252;-76
2022/04/26 06:32:35;;;;;;;1.70;1.60;;;;;;;21.37;36.01;94283.38;5069493;28;20640;-75
2022/04/26 06:35:01;;;;;;;5.03;1.60;;;;;;;20.85;36.75;94277.34;5092360;28;20460;-76
2022/04/26 06:37:26;;;;;;;4.43;1.70;;;;;;;20.89;37.10;94278.41;5080464;28;20425;-76
2022/04/26 06:39:52;;;;;;;3.63;1.70;;;;;;;21.51;35.77;94276.41;5064461;28;20173;-76
2022/04/26 06:42:17;;;;;;;5.67;1.80;;;;;;;22.09;34.80;94275.09;5067172;28;20178;-75
2022/04/26 06:44:44;;;;;;;1.73;1.40;;;;;;;21.79;34.96;94274.19;5076693;28;20177;-75
2022/04/26 06:47:10;;;;;;;2.43;1.63;;;;;;;22.25;34.23;94271.28;5072986;28;20209;-76
2022/04/26 06:49:35;;;;;;;1.93;1.40;;;;;;;22.49;34.29;94282.06;5074542;28;20412;-76
2022/04/26 06:52:00;;;;;;;7.20;1.87;;;;;;;22.65;33.88;94279.28;5071449;28;20197;-76
2022/04/26 06:54:26;;;;;;;2.63;1.70;;;;;;;22.80;32.94;94276.47;5083244;28;20308;-75
2022/04/26 06:56:52;;;;;;;4.27;1.60;;;;;;;23.07;32.70;94268.00;5075797;28;20565;-76
2022/04/26 06:59:18;;;;;;;7.00;1.80;;;;;;;23.43;31.98;94266.81;5063740;28;20187;-76
2022/04/26 07:01:44;;;;;;;4.57;2.10;;;;;;;23.13;31.91;94266.88;5079990;28;20178;-76
2022/04/26 07:04:09;;;;;;;1.80;1.70;;;;;;;23.00;32.02;94262.16;5073900;28;20435;-76
2022/04/26 07:06:35;;;;;;;2.93;1.60;;;;;;;22.82;32.13;94263.66;5082397;28;20523;-76
2022/04/26 07:09:01;;;;;;;2.57;1.53;;;;;;;22.99;32.22;94264.03;5079201;28;20209;-75
2022/04/26 07:11:27;;;;;;;2.90;1.60;;;;;;;23.09;31.95;94267.72;5064489;28;20205;-76
2022/04/26 07:13:53;;;;;;;4.30;1.40;;;;;;;22.57;32.19;94268.13;5078896;28;20424;-76
2022/04/26 07:16:19;;;;;;;2.90;1.63;;;;;;;22.92;32.17;94262.78;5076248;28;20448;-76
2022/04/26 07:18:45;;;;;;;3.20;1.90;;;;;;;23.19;31.88;94262.28;5059646;28;20261;-76
2022/04/26 07:21:10;;;;;;;2.13;1.10;;;;;;;23.38;31.27;94260.44;5075004;28;20428;-76
2022/04/26 07:23:36;;;;;;;1.80;1.37;;;;;;;23.46;31.08;94260.91;5079538;28;20423;-75
2022/04/26 07:26:01;;;;;;;2.00;1.30;;;;;;;23.03;32.16;94256.31;5074302;28;20206;-75
2022/04/26 07:28:27;;;;;;;5.30;1.50;;;;;;;23.04;32.33;94255.22;5058030;28;20223;-76
2022/04/26 07:30:53;;;;;;;4.97;1.30;;;;;;;23.42;31.70;94257.22;5085341;28;20208;-76
2022/04/26 07:36:03;;;;;;;3.33;1.27;;;;;;;24.09;30.31;94267.91;5075816;28;20415;-76
2022/04/26 07:38:28;;;;;;;1.40;1.30;;;;;;;23.70;31.09;94266.25;5070241;28;20444;-76
2022/04/26 07:40:56;;;;;;;3.70;1.33;;;;;;;24.07;30.61;94259.38;5075380;28;20184;-76
2022/04/26 07:43:22;;;;;;;5.83;1.70;;;;;;;23.70;31.07;94263.56;5063262;28;20185;-76
2022/04/26 07:45:48;;;;;;;2.33;1.43;;;;;;;23.32;31.42;94260.81;5084656;28;20462;-75
2022/04/26 07:48:16;;;;;;;3.93;1.40;;;;;;;23.45;31.30;94267.31;5078207;28;20174;-76
2022/04/26 07:50:44;;;;;;;2.40;1.20;;;;;;;22.79;31.81;94258.88;5070320;28;20177;-76
2022/04/26 07:53:10;;;;;;;5.60;1.80;;;;;;;22.75;32.94;94257.84;5072866;28;20430;-76
2022/04/26 07:55:37;;;;;;;5.63;1.60;;;;;;;23.02;32.58;94259.22;5075576;28;20461;-76
2022/04/26 07:58:03;;;;;;;1.67;1.20;;;;;;;23.61;31.50;94258.06;5068724;28;20183;-76
2022/04/26 08:00:29;;;;;;;3.63;1.50;;;;;;;22.94;33.05;94249.94;5081700;28;20493;-76
2022/04/26 08:02:55;;;;;;;2.50;1.77;;;;;;;23.71;31.84;94257.13;5091994;28;20178;-77
2022/04/26 08:05:21;;;;;;;3.20;1.60;;;;;;;24.23;30.86;94252.72;5073695;28;20185;-76
2022/04/26 08:07:48;;;;;;;5.53;2.13;;;;;;;24.34;30.21;94251.50;5058213;28;20436;-76
2022/04/26 08:10:14;;;;;;;7.90;1.63;;;;;;;24.13;30.50;94253.69;5074518;28;20415;-76
2022/04/26 08:12:42;;;;;;;4.43;1.50;;;;;;;23.64;31.57;94257.50;5067398;28;20471;-76
2022/04/26 08:15:10;;;;;;;3.23;1.53;;;;;;;23.42;31.95;94247.31;5075213;28;20424;-76
2022/04/26 08:17:36;;;;;;;1.80;1.70;;;;;;;24.14;30.92;94243.78;5071150;28;20439;-76
2022/04/26 08:20:03;;;;;;;1.37;1.23;;;;;;;24.68;30.34;94253.16;5074461;28;20425;-76
2022/04/26 08:22:29;;;;;;;3.07;1.60;;;;;;;24.98;29.77;94245.66;5069197;28;20467;-76
2022/04/26 08:27:39;;;;;;;5.77;2.20;;;;;;;25.45;29.89;94256.38;5078849;28;20504;-77
2022/04/26 08:30:05;;;;;;;7.13;2.33;;;;;;;24.73;31.93;94244.22;5065256;28;20432;-76
2022/04/26 08:32:45;;;;;;;4.00;2.30;;;;;;;25.27;31.38;94252.66;5071476;28;20179;-77
2022/04/26 08:35:13;;;;;;;7.87;2.67;;;;;;;25.04;31.48;94257.91;5056262;28;20438;-76
2022/04/26 08:37:39;;;;;;;8.90;3.07;;;;;;;24.65;32.76;94253.72;5078179;28;20431;-76
2022/04/26 08:40:07;;;;;;;10.17;3.57;;;;;;;25.32;31.63;94256.03;5075494;28;20760;-76
2022/04/26 08:42:38;;;;;;;12.60;3.27;;;;;;;25.33;31.30;94240.78;5051865;28;20194;-76
2022/04/26 08:45:05;;;;;;;6.77;3.70;;;;;;;25.66;30.96;94248.72;5056143;28;20962;-76
2022/04/26 08:53:00;;;;;;;4.63;2.20;;;;;;;26.05;29.98;94248.19;5070060;28;20830;-76
2022/04/26 08:55:25;;;;;;;8.43;3.40;;;;;;;25.98;30.60;94249.69;5053469;28;20460;-76
2022/04/26 08:57:51;;;;;;;5.90;2.50;;;;;;;25.63;30.68;94246.63;5065752;28;20269;-76
2022/04/26 09:00:17;;;;;;;7.07;2.67;;;;;;;26.21;30.31;94245.94;5075412;28;20201;-76
2022/04/26 09:03:01;;;;;;;6.80;2.57;;;;;;;26.42;29.83;94248.19;5073850;28;20796;-76
2022/04/26 09:05:30;;;;;;;8.90;3.47;;;;;;;25.18;31.43;94243.72;5057708;28;20233;-76
2022/04/26 09:07:56;;;;;;;9.47;2.30;;;;;;;25.35;30.74;94246.66;5068853;28;20438;-76
2022/04/26 09:10:22;;;;;;;5.13;2.80;;;;;;;25.85;30.65;94249.38;5075057;28;20445;-76
2022/04/26 09:13:07;;;;;;;2.40;2.20;;;;;;;26.74;28.94;94246.38;5078221;28;20463;-76
2022/04/26 09:15:43;;;;;;;9.13;3.17;;;;;;;26.13;30.13;94238.63;5057414;28;20170;-76
2022/04/26 09:18:30;;;;;;;5.17;2.63;;;;;;;25.41;31.51;94237.41;5082517;28;20445;-76
2022/04/26 09:21:05;;;;;;;7.93;3.30;;;;;;;26.49;29.79;94243.19;5081786;28;20467;-76
2022/04/26 09:23:33;;;;;;;17.77;4.77;;;;;;;25.93;30.66;94237.19;5074873;28;20537;-76
2022/04/26 09:26:00;;;;;;;11.37;4.90;;;;;;;26.39;30.33;94238.84;5087029;28;20467;-76
2022/04/26 09:28:28;;;;;;;8.93;3.50;;;;;;;26.79;30.55;94235.53;5087524;28;20484;-76
2022/04/26 09:30:54;;;;;;;8.43;2.83;;;;;;;27.12;29.34;94232.53;5084433;28;20493;-76
2022/04/26 09:33:33;;;;;;;10.00;3.13;;;;;;;27.08;29.14;94238.50;5069520;28;20432;-76
2022/04/26 09:36:00;;;;;;;9.93;2.90;;;;;;;27.04;30.03;94237.53;5087192;28;20514;-76
2022/04/26 09:38:26;;;;;;;5.20;3.03;;;;;;;26.51;30.81;94237.50;5073627;28;21157;-76
2022/04/26 09:41:02;;;;;;;16.43;3.13;;;;;;;25.86;31.34;94239.47;5073827;28;20412;-76
2022/04/26 09:43:28;;;;;;;7.80;2.63;;;;;;;25.21;32.24;94230.53;5066858;28;20178;-76
2022/04/26 09:45:57;;;;;;;13.53;5.20;;;;;;;25.22;32.38;94220.63;5066781;28;20480;-76
2022/04/26 09:48:30;;;;;;;8.33;4.23;;;;;;;26.18;31.17;94225.13;5082525;28;20423;-76
2022/04/26 09:50:57;;;;;;;16.10;5.00;;;;;;;26.34;31.12;94225.53;5068157;28;20436;-75
2022/04/26 09:53:24;;;;;;;9.23;3.20;;;;;;;27.15;29.66;94213.91;5069959;28;20417;-76
2022/04/26 09:55:53;;;;;;;7.23;2.90;;;;;;;27.69;28.89;94216.47;5079353;28;20789;-75
2022/04/26 09:58:19;;;;;;;5.40;3.00;;;;;;;27.90;28.96;94218.59;5092992;28;20422;-76
2022/04/26 10:00:49;;;;;;;5.50;3.07;;;;;;;28.18;28.33;94219.88;5064439;28;20417;-76
2022/04/26 10:03:20;;;;;;;7.13;2.63;;;;;;;28.55;27.38;94215.00;5079669;28;20428;-76
2022/04/26 10:05:49;;;;;;;9.00;3.83;;;;;;;26.76;29.13;94211.97;5070112;28;20476;-76
2022/04/26 10:08:17;;;;;;;7.60;3.57;;;;;;;27.42;29.31;94207.53;5061633;28;20469;-76
2022/04/26 10:10:44;;;;;;;16.47;3.63;;;;;;;27.26;29.17;94206.38;5072455;28;20491;-76
2022/04/26 10:16:05;;;;;;;5.17;2.77;;;;;;;27.01;29.47;94208.59;5074972;28;20436;-76
2022/04/26 10:18:43;;;;;;;11.37;3.00;;;;;;;27.76;28.71;94197.97;5064439;28;20445;-76
2022/04/26 10:21:09;;;;;;;6.53;2.77;;;;;;;27.67;28.47;94199.06;5073694;28;20949;-76
2022/04/26 10:24:03;;;;;;;4.47;2.50;;;;;;;27.79;28.55;94202.75;5079826;28;20433;-76
2022/04/26 10:26:34;;;;;;;10.40;3.10;;;;;;;27.38;29.08;94187.78;5065295;28;20205;-76
2022/04/26 10:29:17;;;;;;;7.40;2.60;;;;;;;28.65;27.43;94194.22;5085222;28;20458;-76
2022/04/26 10:31:49;;;;;;;6.13;3.33;;;;;;;28.09;28.30;94189.50;5067236;28;20481;-76
2022/04/26 10:34:18;;;;;;;7.23;3.30;;;;;;;27.82;27.38;94199.41;5075664;28;20505;-76
2022/04/26 10:36:47;;;;;;;7.63;2.97;;;;;;;26.77;29.00;94189.38;5075512;28;20431;-75
2022/04/26 10:39:12;;;;;;;6.37;2.80;;;;;;;26.60;29.06;94182.81;5079973;28;20428;-75
2022/04/26 10:41:42;;;;;;;3.27;2.97;;;;;;;26.38;29.77;94186.25;5082628;28;20426;-76
2022/04/26 10:44:14;;;;;;;13.37;3.47;;;;;;;26.47;29.53;94186.34;5085672;28;20187;-75
2022/04/26 10:46:59;;;;;;;5.30;2.47;;;;;;;26.57;28.76;94186.06;5074158;28;20516;-76
2022/04/26 10:49:38;;;;;;;7.63;2.60;;;;;;;26.60;28.73;94182.03;5074586;28;20427;-75
2022/04/26 10:52:19;;;;;;;5.97;2.50;;;;;;;27.25;28.19;94183.31;5074826;28;20412;-76
2022/04/26 10:55:01;;;;;;;9.10;2.73;;;;;;;28.09;27.24;94170.66;5063582;28;20500;-76
2022/04/26 10:57:35;;;;;;;6.90;3.03;;;;;;;28.86;26.62;94168.19;5090245;28;20466;-76
2022/04/26 11:00:00;;;;;;;4.90;2.73;;;;;;;29.56;24.56;94157.13;5078650;28;20904;-76
2022/04/26 11:02:31;;;;;;;5.00;2.40;;;;;;;28.96;24.37;94167.06;5077152;28;20420;-76
2022/04/26 11:04:59;;;;;;;5.40;2.20;;;;;;;28.15;25.09;94165.91;5085491;28;20179;-76
2022/04/26 11:07:28;;;;;;;2.70;1.90;;;;;;;29.15;24.36;94164.00;5073587;28;20454;-76
2022/04/26 11:09:56;;;;;;;5.23;2.53;;;;;;;29.83;23.81;94176.66;5070811;28;20441;-76
2022/04/26 11:12:36;;;;;;;6.73;2.27;;;;;;;29.50;24.15;94159.22;5073295;28;20420;-76
2022/04/26 11:15:05;;;;;;;3.60;1.97;;;;;;;29.39;24.32;94164.19;5071094;28;20423;-75
2022/04/26 11:17:31;;;;;;;6.73;2.50;;;;;;;28.46;24.86;94160.34;5065615;28;20413;-75
2022/04/26 11:20:03;;;;;;;8.27;2.60;;;;;;;27.84;25.78;94166.81;5079123;28;20432;-76
2022/04/26 11:22:29;;;;;;;6.33;2.10;;;;;;;27.48;26.69;94153.66;5047124;28;20426;-76
2022/04/26 11:28:06;;;;;;;3.47;1.70;;;;;;;29.13;23.89;94150.06;5078788;28;20461;-76
2022/04/26 11:30:40;;;;;;;5.97;2.10;;;;;;;27.85;25.22;94147.69;5064931;28;20487;-76
2022/04/26 11:33:11;;;;;;;5.43;2.40;;;;;;;29.02;24.36;94150.38;5077640;28;20429;-76
2022/04/26 11:35:38;;;;;;;7.50;2.70;;;;;;;29.38;24.08;94145.63;5095246;28;20412;-75
2022/04/26 11:38:13;;;;;;;9.93;2.33;;;;;;;27.55;25.57;94143.22;5066157;28;20428;-75
2022/04/26 11:40:50;;;;;;;4.77;2.10;;;;;;;26.18;27.38;94146.50;5054847;28;20454;-75
2022/04/26 11:43:21;;;;;;;3.63;2.10;;;;;;;26.13;27.68;94143.97;5077847;28;20443;-75
2022/04/26 11:45:49;;;;;;;3.10;2.20;;;;;;;26.83;26.54;94134.44;5072529;28;20490;-75
2022/04/26 11:48:18;;;;;;;5.63;2.20;;;;;;;27.10;26.13;94135.34;5061610;28;20429;-75
2022/04/26 11:50:48;;;;;;;6.53;2.30;;;;;;;27.70;25.67;94131.19;5079024;28;20428;-76
2022/04/26 11:53:15;;;;;;;6.30;2.10;;;;;;;28.96;24.24;94132.81;5079544;28;20942;-76
2022/04/26 11:55:44;;;;;;;2.70;1.93;;;;;;;30.44;22.14;94127.59;5071049;28;20463;-76
2022/04/26 11:58:17;;;;;;;9.30;2.90;;;;;;;31.26;21.68;94126.81;5083140;28;20432;-76
2022/04/26 12:01:02;;;;;;;6.90;2.50;;;;;;;31.67;20.77;94120.38;5068353;28;20402;-76
2022/04/26 12:03:38;;;;;;;6.13;2.63;;;;;;;31.35;20.67;94115.91;5072932;28;20430;-76
2022/04/26 12:06:08;;;;;;;3.67;2.60;;;;;;;31.10;21.52;94113.19;5063846;28;20457;-75
2022/04/26 12:08:38;;;;;;;8.20;2.30;;;;;;;31.64;21.06;94112.94;5063965;28;20440;-75
2022/04/26 12:11:18;;;;;;;3.27;1.83;;;;;;;31.73;20.12;94120.16;5067130;28;20399;-76
2022/04/26 12:13:45;;;;;;;3.60;2.30;;;;;;;32.53;20.19;94119.31;5084321;28;20447;-76
2022/04/26 12:16:19;;;;;;;10.23;2.67;;;;;;;30.89;21.47;94108.66;5083736;28;20914;-76
2022/04/26 12:18:56;;;;;;;5.73;2.47;;;;;;;31.75;20.59;94107.06;5072751;28;20444;-76
2022/04/26 12:21:23;;;;;;;7.10;1.77;;;;;;;31.22;21.19;94105.06;5063980;28;20416;-76
2022/04/26 12:24:12;;;;;;;7.07;2.40;;;;;;;31.05;20.45;94105.31;5074567;28;20486;-76
2022/04/26 12:26:55;;;;;;;1.53;1.33;;;;;;;30.49;21.42;94109.25;5051423;28;20555;-76
2022/04/26 12:29:22;;;;;;;5.10;1.90;;;;;;;30.22;21.88;94101.72;5076433;28;20535;-76
2022/04/26 12:31:49;;;;;;;2.40;1.93;;;;;;;29.96;21.96;94105.44;5082628;28;20425;-75
2022/04/26 12:34:22;;;;;;;5.33;1.90;;;;;;;29.52;22.20;94096.84;5067882;28;20497;-76
2022/04/26 12:36:58;;;;;;;6.47;1.80;;;;;;;30.53;21.99;94104.75;5063920;28;20410;-76
2022/04/26 12:39:52;;;;;;;5.47;1.47;;;;;;;30.52;21.22;94097.78;5064240;28;20434;-76
2022/04/26 12:42:27;;;;;;;4.17;1.70;;;;;;;31.25;20.77;94104.41;5059835;28;20441;-76
2022/04/26 12:45:02;;;;;;;8.03;2.00;;;;;;;31.13;21.03;94099.00;5072681;28;20434;-76
2022/04/26 12:50:28;;;;;;;3.03;1.80;;;;;;;31.84;19.93;94100.38;5085519;28;20453;-75
2022/04/26 12:52:57;;;;;;;6.77;2.50;;;;;;;30.60;21.17;94098.81;5083971;28;20439;-75
2022/04/26 12:55:25;;;;;;;2.40;1.70;;;;;;;30.94;21.10;94078.75;5079060;28;20447;-75
2022/04/26 12:57:53;;;;;;;6.17;1.83;;;;;;;28.81;24.23;94091.03;5081315;28;20412;-75
2022/04/26 13:00:20;;;;;;;9.50;1.80;;;;;;;28.53;25.29;94096.06;5067443;28;20422;-75
2022/04/26 13:02:47;;;;;;;4.77;1.77;;;;;;;28.52;25.48;94099.06;5070063;28;20413;-75
2022/04/26 13:05:13;;;;;;;8.67;1.80;;;;;;;28.56;25.18;94095.41;5074262;28;20420;-75
2022/04/26 13:07:38;;;;;;;15.90;4.47;;;;;;;28.63;25.51;94105.69;5070711;28;20482;-76
2022/04/26 13:10:04;;;;;;;2.80;2.33;;;;;;;28.04;25.79;94098.19;5051366;28;20251;-76
2022/04/26 13:12:31;;;;;;;4.87;2.10;;;;;;;28.70;25.25;94119.44;5067856;28;20171;-76
2022/04/26 13:14:57;;;;;;;5.23;1.10;;;;;;;27.79;26.00;94111.31;5075408;28;20448;-76
2022/04/26 13:17:22;;;;;;;6.70;1.90;;;;;;;28.43;25.09;94112.50;5051561;28;20418;-75
2022/04/26 13:19:48;;;;;;;2.10;1.30;;;;;;;28.19;25.60;94113.03;5070255;28;20187;-76
2022/04/26 13:22:15;;;;;;;2.40;1.17;;;;;;;28.18;25.20;94117.63;5075257;28;20204;-76
2022/04/26 13:24:40;;;;;;;6.13;1.50;;;;;;;28.17;25.79;94121.44;5067876;28;20174;-76
2022/04/26 13:27:06;;;;;;;9.80;2.03;;;;;;;28.17;26.03;94120.63;5066657;28;20458;-76
2022/04/26 13:29:32;;;;;;;4.93;1.60;;;;;;;28.29;25.60;94134.25;5067469;28;20170;-76
2022/04/26 13:31:58;;;;;;;2.60;1.30;;;;;;;28.84;24.99;94138.09;5077635;28;20425;-76
2022/04/26 13:34:24;;;;;;;3.93;1.73;;;;;;;27.69;26.32;94143.09;5084885;28;20183;-76
2022/04/26 13:36:50;;;;;;;2.70;1.10;;;;;;;26.85;26.74;94122.28;5084251;28;20166;-76
2022/04/26 13:39:15;;;;;;;2.80;1.40;;;;;;;25.70;28.63;94121.81;5076401;28;20443;-75
2022/04/26 13:41:41;;;;;;;7.60;1.63;;;;;;;26.80;28.20;94114.34;5075476;28;20425;-75
2022/04/26 13:44:06;;;;;;;10.23;1.80;;;;;;;27.49;27.58;94120.25;5078294;28;20179;-76
2022/04/26 13:46:32;;;;;;;2.40;1.23;;;;;;;26.63;28.75;94111.59;5076805;28;20580;-76
2022/04/26 13:48:57;;;;;;;2.57;1.30;;;;;;;26.36;29.55;94107.19;5086417;28;20224;-75
2022/04/26 13:51:27;;;;;;;5.13;2.43;;;;;;;25.75;30.23;94106.75;5078162;28;20186;-76
2022/04/26 13:53:52;;;;;;;4.13;1.67;;;;;;;25.80;30.07;94107.41;5078018;28;20251;-76
2022/04/26 13:56:18;;;;;;;1.90;1.57;;;;;;;25.30;30.84;94112.78;5067043;28;20408;-76
2022/04/26 13:58:43;;;;;;;3.80;1.93;;;;;;;25.64;31.08;94100.81;5066437;28;20789;-75
2022/04/26 14:01:09;;;;;;;8.60;1.73;;;;;;;24.54;33.48;94111.28;5073783;28;20170;-75
2022/04/26 14:03:34;;;;;;;2.90;1.50;;;;;;;24.86;33.50;94125.69;5071134;28;20579;-75
2022/04/26 14:05:59;;;;;;;3.90;1.93;;;;;;;24.47;34.48;94134.94;5088052;28;20222;-75
2022/04/26 14:08:25;;;;;;;9.73;1.80;;;;;;;24.77;34.79;94137.38;5085920;28;20188;-76
2022/04/26 14:10:50;;;;;;;4.83;2.13;;;;;;;25.00;34.63;94141.72;5054262;28;20272;-75
2022/04/26 14:13:16;;;;;;;4.53;1.63;;;;;;;25.74;33.63;94156.06;5083280;28;20222;-75
2022/04/26 14:23:53;;;;;;;4.53;1.73;;;;;;;28.00;29.59;94183.31;5071274;28;20610;-76
2022/04/26 14:26:19;;;;;;;4.73;1.70;;;;;;;27.78;29.54;94200.34;5066305;28;20467;-76
2022/04/26 14:28:44;;;;;;;7.03;1.77;;;;;;;28.96;27.53;94202.06;5078975;28;20192;-76
2022/04/26 14:31:10;;;;;;;3.60;1.93;;;;;;;27.80;29.67;94220.44;5082417;28;20440;-76
2022/04/26 14:33:35;;;;;;;3.93;1.73;;;;;;;25.74;32.03;94234.59;5058385;28;20186;-76
2022/04/26 14:36:01;;;;;;;5.57;2.10;;;;;;;25.83;32.27;94240.84;5085751;28;20166;-76
2022/04/26 14:38:27;;;;;;;3.20;1.70;;;;;;;25.89;31.46;94239.63;5067239;28;20174;-75
2022/04/26 14:40:53;;;;;;;7.87;1.87;;;;;;;25.14;32.76;94230.91;5065625;28;20413;-75
2022/04/26 14:43:20;;;;;;;1.83;1.53;;;;;;;24.82;33.14;94233.66;5065748;28;20432;-75
2022/04/26 14:45:45;;;;;;;2.90;1.50;;;;;;;24.36;34.18;94245.88;5078143;28;20174;-76
2022/04/26 14:48:12;;;;;;;3.10;1.70;;;;;;;22.86;36.93;94245.19;5066845;28;20449;-76
2022/04/26 14:50:39;;;;;;;2.47;1.50;;;;;;;22.03;38.18;94256.47;5080328;28;20245;-76
2022/04/26 14:53:05;;;;;;;6.37;1.70;;;;;;;23.43;35.88;94272.16;5078297;28;20424;-75
2022/04/26 14:55:30;;;;;;;2.00;1.20;;;;;;;22.42;37.83;94287.72;5080620;28;20519;-75
2022/04/26 14:57:55;;;;;;;4.23;1.30;;;;;;;22.63;37.03;94281.41;5076036;28;20185;-75
2022/04/26 15:00:21;;;;;;;5.43;1.20;;;;;;;22.27;37.23;94281.69;5069999;28;20177;-76
2022/04/26 15:02:46;;;;;;;3.40;1.40;;;;;;;21.16;39.28;94288.72;5065618;28;20234;-75
2022/04/26 15:05:13;;;;;;;6.20;1.53;;;;;;;21.80;38.68;94300.56;5067093;28;20258;-75
2022/04/26 15:10:23;;;;;;;2.80;1.20;;;;;;;21.52;39.25;94294.00;5074521;28;21280;-75
2022/04/26 15:18:17;;;;;;;1.47;1.30;;;;;;;23.15;35.88;94295.97;5075936;28;20462;-75
2022/04/26 15:20:46;;;;;;;0.93;0.93;;;;;;;22.09;38.13;94304.41;5065660;28;20416;-76
2022/04/26 15:23:12;;;;;;;1.83;1.63;;;;;;;22.28;38.38;94294.72;5065344;28;20190;-76
2022/04/26 15:25:37;;;;;;;2.57;1.63;;;;;;;22.15;38.11;94293.44;5065320;28;20417;-76
2022/04/26 15:28:03;;;;;;;6.70;2.03;;;;;;;22.79;37.71;94312.25;5064824;28;20273;-75
2022/04/26 15:30:28;;;;;;;4.30;1.40;;;;;;;24.51;34.62;94311.69;5046737;28;20249;-76
2022/04/26 15:32:54;;;;;;;3.07;1.80;;;;;;;26.04;32.62;94305.59;5064687;28;20323;-75
2022/04/26 15:35:19;;;;;;;3.07;1.73;;;;;;;28.84;28.38;94301.63;5075915;28;20222;-76
2022/04/26 15:37:45;;;;;;;5.60;1.70;;;;;;;29.17;27.36;94307.31;5055705;28;20197;-75
2022/04/26 15:40:11;;;;;;;2.20;1.77;;;;;;;27.94;29.16;94306.41;5047719;28;20710;-76
2022/04/26 15:42:36;;;;;;;3.63;1.80;;;;;;;26.62;30.89;94301.41;5064627;28;20199;-75
2022/04/26 15:45:02;;;;;;;2.23;1.37;;;;;;;24.80;33.24;94302.75;5064925;28;20413;-75
2022/04/26 15:47:29;;;;;;;1.83;1.17;;;;;;;22.96;36.79;94304.63;5064483;28;20202;-75
2022/04/26 15:49:55;;;;;;;2.60;1.30;;;;;;;23.37;36.02;94292.78;5078815;28;20918;-75
2022/04/26 15:52:20;;;;;;;1.63;1.47;;;;;;;23.68;35.60;94289.78;5071954;28;20412;-76